Portada
METAR-TAF:

METAR-TAF

Aeroports :

Samsun, Turquia

latitud: 41-15-15N, longitud: 036-34-03E, altitud: 5 m

Observació

L'informe es va fer fa 44 minuts, a les 18:50 UTC
Vent 3 kt del Est/Sud-Est
Temperatura 9°C
Humitat 87%
Pressió 1007 hPa
Visibilitat 10 km o més
Núvols disperses a una alçada de 1200 ft
Cel ennuvolat a una alçada de 3000 ft
Cel ennuvolat a una alçada de 10000 ft

METAR: LTFH 291850Z 11003KT 9999 SCT012 BKN030 BKN100 09/07 Q1007 NOSIG

Hora: 22:34 (19:34 UTC)

Pronòstic

L'informe es va fer fa 2 hores i 54 minuts, a les 16:40 UTC
Pronòstic vàlid del 29 a les 18 UTC al 30 a les 03 UTC
Vent 2 kt amb direcció variable
Visibilitat 10 km o més
Núvols disperses a una alçada de 1200 ft
Cel ennuvolat a una alçada de 3000 ft
Cel ennuvolat a una alçada de 10000 ft
Temporalment
l' 29 a les 19 UTC al 29 a les 23 UTC
pluja

TAF: LTFH 291640Z 2918/3003 VRB02KT 9999 SCT012 BKN030 BKN100 TEMPO 2919/2923 -RA

Observacions i pronòstics meteorològics de més de 4000 aeroports (METAR i TAF).

Les estacions disponibles són els punts grocs i vermells al mapa.

Posi el ratolí al punt desitjat per veure el nom de l'estació.

Feu clic per veure les observacions i els pronòstics meteorològics.

Per canviar el mapa: feu clic els botons verds amb una creu de color negre per apropar; al botó verd amb un guió per allunyar la imatge; o en les fletxes verdes per a mapes adjacents.


METAR-TAF: